地図

経路データ

SID SEASON NUMBER BASIN SUBBASIN NAME ISO_TIME NATURE LAT LON WMO_WIND WMO_PRES WMO_AGENCY TRACK_TYPE DIST2LAND LANDFALL IFLAG USA_AGENCY USA_ATCF_ID USA_LAT USA_LON USA_RECORD USA_STATUS USA_WIND USA_PRES USA_SSHS USA_R34_NE USA_R34_SE USA_R34_SW USA_R34_NW USA_R50_NE USA_R50_SE USA_R50_SW USA_R50_NW USA_R64_NE USA_R64_SE USA_R64_SW USA_R64_NW USA_POCI USA_ROCI USA_RMW USA_EYE TOKYO_LAT TOKYO_LON TOKYO_GRADE TOKYO_WIND TOKYO_PRES TOKYO_R50_DIR TOKYO_R50_LONG TOKYO_R50_SHORT TOKYO_R30_DIR TOKYO_R30_LONG TOKYO_R30_SHORT TOKYO_LAND CMA_LAT CMA_LON CMA_CAT CMA_WIND CMA_PRES HKO_LAT HKO_LON HKO_CAT HKO_WIND HKO_PRES NEWDELHI_LAT NEWDELHI_LON NEWDELHI_GRADE NEWDELHI_WIND NEWDELHI_PRES NEWDELHI_CI NEWDELHI_DP NEWDELHI_POCI REUNION_LAT REUNION_LON REUNION_TYPE REUNION_WIND REUNION_PRES REUNION_TNUM REUNION_CI REUNION_RMW REUNION_R34_NE REUNION_R34_SE REUNION_R34_SW REUNION_R34_NW REUNION_R50_NE REUNION_R50_SE REUNION_R50_SW REUNION_R50_NW REUNION_R64_NE REUNION_R64_SE REUNION_R64_SW REUNION_R64_NW BOM_LAT BOM_LON BOM_TYPE BOM_WIND BOM_PRES BOM_TNUM BOM_CI BOM_RMW BOM_R34_NE BOM_R34_SE BOM_R34_SW BOM_R34_NW BOM_R50_NE BOM_R50_SE BOM_R50_SW BOM_R50_NW BOM_R64_NE BOM_R64_SE BOM_R64_SW BOM_R64_NW BOM_ROCI BOM_POCI BOM_EYE BOM_POS_METHOD BOM_PRES_METHOD NADI_LAT NADI_LON NADI_CAT NADI_WIND NADI_PRES WELLINGTON_LAT WELLINGTON_LON WELLINGTON_WIND WELLINGTON_PRES DS824_LAT DS824_LON DS824_STAGE DS824_WIND DS824_PRES TD9636_LAT TD9636_LON TD9636_STAGE TD9636_WIND TD9636_PRES TD9635_LAT TD9635_LON TD9635_WIND TD9635_PRES TD9635_ROCI NEUMANN_LAT NEUMANN_LON NEUMANN_CLASS NEUMANN_WIND NEUMANN_PRES MLC_LAT MLC_LON MLC_CLASS MLC_WIND MLC_PRES USA_GUST BOM_GUST BOM_GUST_PER REUNION_GUST REUNION_GUST_PER USA_SEAHGT USA_SEARAD_NE USA_SEARAD_SE USA_SEARAD_SW USA_SEARAD_NW STORM_SPEED STORM_DIR
1906291N13135 1906 48 WP MM NOT_NAMED 1906-10-17 16:00:00 NR 12.7000 134.600 main 976 936 __________O___ -1 12.7000 134.600 7 11 287
1906291N13135 1906 48 WP MM NOT_NAMED 1906-10-17 18:00:00 NR 12.8085 134.225 main 936 888 __________P___ -1 12.8085 134.225 7 12 287
1906291N13135 1906 48 WP MM NOT_NAMED 1906-10-17 21:00:00 NR 12.9738 133.653 main 888 828 __________P___ -1 12.9738 133.653 7 12 287
1906291N13135 1906 48 WP MM NOT_NAMED 1906-10-18 00:00:00 NR 13.1471 133.057 main 828 758 __________P___ -1 13.1471 133.057 7 13 287
1906291N13135 1906 48 WP MM NOT_NAMED 1906-10-18 03:00:00 NR 13.3339 132.423 main 758 739 __________P___ -1 13.3339 132.423 7 13 287
1906291N13135 1906 48 WP MM NOT_NAMED 1906-10-18 04:00:00 NR 13.4000 132.200 main 739 688 __________O___ -1 13.4000 132.200 7 14 287
1906291N13135 1906 48 WP MM NOT_NAMED 1906-10-18 06:00:00 NR 13.5391 131.737 main 688 622 __________P___ -1 13.5391 131.737 7 15 288
1906291N13135 1906 48 WP MM NOT_NAMED 1906-10-18 09:00:00 NR 13.7665 131.011 main 622 557 __________P___ -1 13.7665 131.011 7 15 289
1906291N13135 1906 48 WP MM NOT_NAMED 1906-10-18 12:00:00 NR 14.0189 130.270 main 557 492 __________P___ -1 14.0189 130.270 7 15 290
1906291N13135 1906 48 WP MM NOT_NAMED 1906-10-18 15:00:00 NR 14.2996 129.538 main 492 479 __________P___ -1 14.2996 129.538 7 15 292
1906291N13135 1906 48 WP MM NOT_NAMED 1906-10-18 16:00:00 NR 14.4000 129.300 main 479 446 __________O___ -1 14.4000 129.300 7 15 293
1906291N13135 1906 48 WP MM NOT_NAMED 1906-10-18 18:00:00 NR 14.5999 128.821 main 446 412 __________P___ -1 14.5999 128.821 7 15 295
1906291N13135 1906 48 WP MM NOT_NAMED 1906-10-18 21:00:00 NR 14.9250 128.120 main 412 364 __________P___ -1 14.9250 128.120 7 15 297
1906291N13135 1906 48 WP MM NOT_NAMED 1906-10-19 00:00:00 NR 15.2801 127.464 main 368 329 __________P___ -1 15.2801 127.464 7 14 302
1906291N13135 1906 48 WP MM NOT_NAMED 1906-10-19 03:00:00 NR 15.6651 126.876 main 335 326 __________P___ -1 15.6651 126.876 7 14 305
1906291N13135 1906 48 WP MM NOT_NAMED 1906-10-19 04:00:00 NR 15.8000 126.700 main 326 317 __________O___ -1 15.8000 126.700 7 13 311
1906291N13135 1906 48 WP MM NOT_NAMED 1906-10-19 06:00:00 NR 16.0843 126.374 main 325 318 __________P___ -1 16.0843 126.374 7 12 316
1906291N13135 1906 48 WP MM NOT_NAMED 1906-10-19 09:00:00 NR 16.5369 125.954 main 334 329 __________P___ -1 16.5369 125.954 7 12 321
1906291N13135 1906 48 WP MM NOT_NAMED 1906-10-19 12:00:00 NR 17.0012 125.600 main 329 300 __________P___ -1 17.0012 125.600 7 11 326
1906291N13135 1906 48 WP MM NOT_NAMED 1906-10-19 15:00:00 NR 17.4549 125.295 main 302 292 __________P___ -1 17.4549 125.295 7 11 328
1906291N13135 1906 48 WP MM NOT_NAMED 1906-10-19 16:00:00 NR 17.6000 125.200 main 294 280 __________O___ -1 17.6000 125.200 3 10 325
1906291N13135 1906 48 WP MM NOT_NAMED 1906-10-19 18:00:00 NR 17.8564 124.999 main 283 253 __________P___ -1 17.8564 124.999 3 9 324
1906291N13135 1906 48 WP MM NOT_NAMED 1906-10-19 21:00:00 NR 18.2220 124.729 main 253 232 __________P___ -1 18.2220 124.729 3 9 326
1906291N13135 1906 48 WP MM NOT_NAMED 1906-10-20 00:00:00 NR 18.5844 124.489 main 233 215 __________P___ -1 18.5844 124.489 3 9 330
1906291N13135 1906 48 WP MM NOT_NAMED 1906-10-20 03:00:00 NR 18.9652 124.270 main 221 211 __________P___ -1 18.9652 124.270 3 9 332
1906291N13135 1906 48 WP MM NOT_NAMED 1906-10-20 04:00:00 NR 19.1000 124.200 main 214 209 __________O___ -1 19.1000 124.200 4 9 332
1906291N13135 1906 48 WP MM NOT_NAMED 1906-10-20 06:00:00 NR 19.3807 124.034 main 210 208 __________P___ -1 19.3807 124.034 4 10 332
1906291N13135 1906 48 WP MM NOT_NAMED 1906-10-20 09:00:00 NR 19.8268 123.798 main 222 223 __________P___ -1 19.8268 123.798 4 10 336
1906291N13135 1906 48 WP MM NOT_NAMED 1906-10-20 12:00:00 NR 20.3056 123.593 main 252 252 __________P___ -1 20.3056 123.593 4 11 341
1906291N13135 1906 48 WP MM NOT_NAMED 1906-10-20 15:00:00 NR 20.8200 123.438 main 286 277 __________P___ -1 20.8200 123.438 4 11 345
1906291N13135 1906 48 WP MM NOT_NAMED 1906-10-20 16:00:00 NR 21.0000 123.400 main 277 254 __________O___ -1 21.0000 123.400 4 12 351
1906291N13135 1906 48 WP MM NOT_NAMED 1906-10-20 18:00:00 NR 21.3922 123.333 main 254 230 __________P___ -1 21.3922 123.333 4 12 354
1906291N13135 1906 48 WP MM NOT_NAMED 1906-10-20 21:00:00 NR 22.0127 123.283 main 230 202 __________P___ -1 22.0127 123.283 4 13 358
1906291N13135 1906 48 WP MM NOT_NAMED 1906-10-21 00:00:00 NR 22.6358 123.293 main 202 194 __________P___ -1 22.6358 123.293 4 12 3
1906291N13135 1906 48 WP MM NOT_NAMED 1906-10-21 03:00:00 NR 23.2206 123.363 main 201 195 __________P___ -1 23.2206 123.363 4 12 7
1906291N13135 1906 48 WP MM NOT_NAMED 1906-10-21 04:00:00 NR 23.4000 123.400 main 195 182 __________O___ -1 23.4000 123.400 4 10 12
1906291N13135 1906 48 WP MM NOT_NAMED 1906-10-21 06:00:00 NR 23.7123 123.480 main 185 175 __________P___ -1 23.7123 123.480 4 9 17
1906291N13135 1906 48 WP MM NOT_NAMED 1906-10-21 09:00:00 NR 24.1303 123.650 main 177 183 __________P___ -1 24.1303 123.650 4 9 24
1906291N13135 1906 48 WP MM NOT_NAMED 1906-10-21 12:00:00 NR 24.5100 123.866 main 199 196 __________P___ -1 24.5100 123.866 4 9 30
1906291N13135 1906 48 WP MM NOT_NAMED 1906-10-21 15:00:00 NR 24.8765 124.114 main 211 211 __________P___ -1 24.8765 124.114 4 9 32
1906291N13135 1906 48 WP MM NOT_NAMED 1906-10-21 16:00:00 NR 25.0000 124.200 main 221 221 __________O___ -1 25.0000 124.200 4 9 30
1906291N13135 1906 48 WP MM NOT_NAMED 1906-10-21 18:00:00 NR 25.2667 124.369 main 243 243 __________P___ -1 25.2667 124.369 4 9 31
1906291N13135 1906 48 WP MM NOT_NAMED 1906-10-21 21:00:00 NR 25.6668 124.641 main 272 282 __________P___ -1 25.6668 124.641 4 9 32
1906291N13135 1906 48 WP MM NOT_NAMED 1906-10-22 00:00:00 NR 26.0667 124.925 main 315 315 __________P___ -1 26.0667 124.925 4 10 33
1906291N13135 1906 48 WP MM NOT_NAMED 1906-10-22 03:00:00 NR 26.4667 125.208 main 361 361 __________P___ -1 26.4667 125.208 4 9 32
1906291N13135 1906 48 WP MM NOT_NAMED 1906-10-22 04:00:00 NR 26.6000 125.300 main 375 375 __________O___ -1 26.6000 125.300 4 9 31
1906291N13135 1906 48 WP MM NOT_NAMED 1906-10-22 06:00:00 NR 26.8639 125.470 main 408 408 __________P___ -1 26.8639 125.470 4 9 29
1906291N13135 1906 48 WP MM NOT_NAMED 1906-10-22 09:00:00 NR 27.2597 125.719 main 418 417 __________P___ -1 27.2597 125.719 4 9 29
1906291N13135 1906 48 WP MM NOT_NAMED 1906-10-22 12:00:00 NR 27.6585 125.965 main 424 420 __________P___ -1 27.6585 125.965 4 9 29
1906291N13135 1906 48 WP MM NOT_NAMED 1906-10-22 15:00:00 NR 28.0632 126.215 main 427 427 __________P___ -1 28.0632 126.215 4 9 29
1906291N13135 1906 48 WP MM NOT_NAMED 1906-10-22 16:00:00 NR 28.2000 126.300 main 433 430 __________O___ -1 28.2000 126.300 4 9 29
1906291N13135 1906 48 WP MM NOT_NAMED 1906-10-22 18:00:00 NR 28.4768 126.474 main 444 423 __________P___ -1 28.4768 126.474 4 10 29
1906291N13135 1906 48 WP MM NOT_NAMED 1906-10-22 21:00:00 NR 28.8986 126.744 main 423 373 __________P___ -1 28.8986 126.744 4 10 29
1906291N13135 1906 48 WP MM NOT_NAMED 1906-10-23 00:00:00 NR 29.3260 127.021 main 373 318 __________P___ -1 29.3260 127.021 4 10 30
1906291N13135 1906 48 WP MM NOT_NAMED 1906-10-23 03:00:00 NR 29.7564 127.305 main 318 304 __________P___ -1 29.7564 127.305 4 10 30
1906291N13135 1906 48 WP MM NOT_NAMED 1906-10-23 04:00:00 NR 29.9000 127.400 main 304 __________O___ -1 29.9000 127.400 7 10 28

デジタル台風データ・検索

IBTrACS Databaseについて

本データベースは、米国NOAAが公開する1842年以降の世界の熱帯低気圧のベストトラックデータアーカイブInternational Best Track Archive for Climate Stewardship (IBTrACS)を、ウェブで閲覧しやすい形式に変換したものです。

最終更新日:2021-12-06